sensor_id;sensor_type;location;lat;lon;timestamp;temperature;humidity
8095;DHT22;4090;49.270;8.696;2023-11-19T00:01:43;8.90;99.90
8095;DHT22;4090;49.270;8.696;2023-11-19T00:04:25;9.00;99.90
8095;DHT22;4090;49.270;8.696;2023-11-19T00:07:07;8.80;99.90
8095;DHT22;4090;49.270;8.696;2023-11-19T00:09:50;8.80;99.90
8095;DHT22;4090;49.270;8.696;2023-11-19T00:12:34;8.90;99.90
8095;DHT22;4090;49.270;8.696;2023-11-19T00:15:17;9.00;99.90
8095;DHT22;4090;49.270;8.696;2023-11-19T00:17:59;9.00;99.90
8095;DHT22;4090;49.270;8.696;2023-11-19T00:20:43;9.00;99.90
8095;DHT22;4090;49.270;8.696;2023-11-19T00:23:25;8.80;99.90
8095;DHT22;4090;49.270;8.696;2023-11-19T00:26:07;9.10;99.90
8095;DHT22;4090;49.270;8.696;2023-11-19T00:28:52;9.00;99.90
8095;DHT22;4090;49.270;8.696;2023-11-19T00:31:36;9.10;99.90
8095;DHT22;4090;49.270;8.696;2023-11-19T00:34:19;9.00;99.90
8095;DHT22;4090;49.270;8.696;2023-11-19T00:37:03;9.10;99.90
8095;DHT22;4090;49.270;8.696;2023-11-19T00:39:45;9.00;99.90
8095;DHT22;4090;49.270;8.696;2023-11-19T00:42:27;9.20;99.90
8095;DHT22;4090;49.270;8.696;2023-11-19T00:45:10;9.20;99.90
8095;DHT22;4090;49.270;8.696;2023-11-19T00:47:53;9.10;99.90
8095;DHT22;4090;49.270;8.696;2023-11-19T00:50:35;9.10;99.90
8095;DHT22;4090;49.270;8.696;2023-11-19T00:53:17;9.00;99.90
8095;DHT22;4090;49.270;8.696;2023-11-19T00:55:59;9.10;99.90
8095;DHT22;4090;49.270;8.696;2023-11-19T00:58:41;9.10;99.90
8095;DHT22;4090;49.270;8.696;2023-11-19T01:01:25;9.10;99.90
8095;DHT22;4090;49.270;8.696;2023-11-19T01:04:07;9.10;99.90
8095;DHT22;4090;49.270;8.696;2023-11-19T01:06:49;9.10;99.90
8095;DHT22;4090;49.270;8.696;2023-11-19T01:09:31;9.00;99.90
8095;DHT22;4090;49.270;8.696;2023-11-19T01:12:15;9.30;99.90
8095;DHT22;4090;49.270;8.696;2023-11-19T01:14:57;9.20;99.90
8095;DHT22;4090;49.270;8.696;2023-11-19T01:17:40;9.10;99.90
8095;DHT22;4090;49.270;8.696;2023-11-19T01:20:24;9.10;99.90
8095;DHT22;4090;49.270;8.696;2023-11-19T01:23:07;9.20;99.90
8095;DHT22;4090;49.270;8.696;2023-11-19T01:25:49;9.10;99.90
8095;DHT22;4090;49.270;8.696;2023-11-19T01:28:30;9.20;99.90
8095;DHT22;4090;49.270;8.696;2023-11-19T01:31:15;9.30;99.90
8095;DHT22;4090;49.270;8.696;2023-11-19T01:33:58;9.10;99.90
8095;DHT22;4090;49.270;8.696;2023-11-19T01:36:40;9.30;99.90
8095;DHT22;4090;49.270;8.696;2023-11-19T01:39:22;9.30;99.90
8095;DHT22;4090;49.270;8.696;2023-11-19T01:42:04;9.10;99.90
8095;DHT22;4090;49.270;8.696;2023-11-19T01:44:57;9.30;99.90
8095;DHT22;4090;49.270;8.696;2023-11-19T01:47:39;9.20;99.90
8095;DHT22;4090;49.270;8.696;2023-11-19T01:50:23;9.10;99.90
8095;DHT22;4090;49.270;8.696;2023-11-19T01:53:06;9.30;99.90
8095;DHT22;4090;49.270;8.696;2023-11-19T01:55:48;9.10;99.90
8095;DHT22;4090;49.270;8.696;2023-11-19T01:58:31;9.10;99.90
8095;DHT22;4090;49.270;8.696;2023-11-19T02:01:13;9.10;99.90
8095;DHT22;4090;49.270;8.696;2023-11-19T02:03:56;9.30;99.90
8095;DHT22;4090;49.270;8.696;2023-11-19T02:06:40;9.20;99.90
8095;DHT22;4090;49.270;8.696;2023-11-19T02:09:24;9.30;99.90
8095;DHT22;4090;49.270;8.696;2023-11-19T02:12:06;9.20;99.90
8095;DHT22;4090;49.270;8.696;2023-11-19T02:14:48;9.20;99.90
8095;DHT22;4090;49.270;8.696;2023-11-19T02:17:31;9.30;99.90
8095;DHT22;4090;49.270;8.696;2023-11-19T02:20:13;9.40;99.90
8095;DHT22;4090;49.270;8.696;2023-11-19T02:22:57;9.30;99.90
8095;DHT22;4090;49.270;8.696;2023-11-19T02:25:40;9.30;99.90
8095;DHT22;4090;49.270;8.696;2023-11-19T02:28:23;9.30;99.90
8095;DHT22;4090;49.270;8.696;2023-11-19T02:31:05;9.20;99.90
8095;DHT22;4090;49.270;8.696;2023-11-19T02:33:50;9.30;99.90
8095;DHT22;4090;49.270;8.696;2023-11-19T02:36:32;9.40;99.90
8095;DHT22;4090;49.270;8.696;2023-11-19T02:39:14;9.40;99.90
8095;DHT22;4090;49.270;8.696;2023-11-19T02:42:01;9.50;99.90
8095;DHT22;4090;49.270;8.696;2023-11-19T02:44:45;9.40;99.90
8095;DHT22;4090;49.270;8.696;2023-11-19T02:47:29;9.50;99.90
8095;DHT22;4090;49.270;8.696;2023-11-19T02:50:11;9.60;99.90
8095;DHT22;4090;49.270;8.696;2023-11-19T02:52:56;9.60;99.90
8095;DHT22;4090;49.270;8.696;2023-11-19T02:55:37;9.60;99.90
8095;DHT22;4090;49.270;8.696;2023-11-19T02:58:21;9.70;99.90
8095;DHT22;4090;49.270;8.696;2023-11-19T03:01:07;9.70;99.90
8095;DHT22;4090;49.270;8.696;2023-11-19T03:04:00;9.60;99.90
8095;DHT22;4090;49.270;8.696;2023-11-19T03:06:43;9.70;99.90
8095;DHT22;4090;49.270;8.696;2023-11-19T03:09:24;9.70;99.90
8095;DHT22;4090;49.270;8.696;2023-11-19T03:12:07;9.80;99.90
8095;DHT22;4090;49.270;8.696;2023-11-19T03:14:49;9.70;99.90
8095;DHT22;4090;49.270;8.696;2023-11-19T03:17:32;9.70;99.90
8095;DHT22;4090;49.270;8.696;2023-11-19T03:20:14;9.70;99.90
8095;DHT22;4090;49.270;8.696;2023-11-19T03:22:57;9.70;99.90
8095;DHT22;4090;49.270;8.696;2023-11-19T03:25:39;9.80;99.90
8095;DHT22;4090;49.270;8.696;2023-11-19T03:28:21;9.90;99.90
8095;DHT22;4090;49.270;8.696;2023-11-19T03:31:05;9.70;99.90
8095;DHT22;4090;49.270;8.696;2023-11-19T03:33:51;9.90;99.90
8095;DHT22;4090;49.270;8.696;2023-11-19T03:36:33;9.90;99.90
8095;DHT22;4090;49.270;8.696;2023-11-19T03:39:15;9.90;99.90
8095;DHT22;4090;49.270;8.696;2023-11-19T03:41:57;9.90;99.90
8095;DHT22;4090;49.270;8.696;2023-11-19T03:44:39;9.90;99.90
8095;DHT22;4090;49.270;8.696;2023-11-19T03:47:20;10.00;99.90
8095;DHT22;4090;49.270;8.696;2023-11-19T03:50:06;10.00;99.90
8095;DHT22;4090;49.270;8.696;2023-11-19T03:52:48;10.00;99.90
8095;DHT22;4090;49.270;8.696;2023-11-19T03:55:30;10.10;99.90
8095;DHT22;4090;49.270;8.696;2023-11-19T03:58:13;9.90;99.90
8095;DHT22;4090;49.270;8.696;2023-11-19T04:00:55;10.00;99.90
8095;DHT22;4090;49.270;8.696;2023-11-19T04:03:37;10.00;99.90
8095;DHT22;4090;49.270;8.696;2023-11-19T04:06:20;10.00;99.90
8095;DHT22;4090;49.270;8.696;2023-11-19T04:09:02;10.00;99.90
8095;DHT22;4090;49.270;8.696;2023-11-19T04:11:44;10.10;99.90
8095;DHT22;4090;49.270;8.696;2023-11-19T04:14:27;10.10;99.90
8095;DHT22;4090;49.270;8.696;2023-11-19T04:17:09;10.20;99.90
8095;DHT22;4090;49.270;8.696;2023-11-19T04:19:51;10.20;99.90
8095;DHT22;4090;49.270;8.696;2023-11-19T04:22:34;10.30;99.90
8095;DHT22;4090;49.270;8.696;2023-11-19T04:25:16;10.30;99.90
8095;DHT22;4090;49.270;8.696;2023-11-19T04:28:00;10.30;99.90
8095;DHT22;4090;49.270;8.696;2023-11-19T04:30:42;10.30;99.90
8095;DHT22;4090;49.270;8.696;2023-11-19T04:33:24;10.30;99.90
8095;DHT22;4090;49.270;8.696;2023-11-19T04:36:07;10.30;99.90
8095;DHT22;4090;49.270;8.696;2023-11-19T04:38:50;10.30;99.90
8095;DHT22;4090;49.270;8.696;2023-11-19T04:41:32;10.30;99.90
8095;DHT22;4090;49.270;8.696;2023-11-19T04:44:14;10.30;99.90
8095;DHT22;4090;49.270;8.696;2023-11-19T04:52:23;10.40;99.90
8095;DHT22;4090;49.270;8.696;2023-11-19T04:55:07;10.40;99.90
8095;DHT22;4090;49.270;8.696;2023-11-19T04:57:50;10.40;99.90
8095;DHT22;4090;49.270;8.696;2023-11-19T05:00:32;10.40;99.90
8095;DHT22;4090;49.270;8.696;2023-11-19T05:03:14;10.30;99.90
8095;DHT22;4090;49.270;8.696;2023-11-19T05:05:56;10.40;99.90
8095;DHT22;4090;49.270;8.696;2023-11-19T05:08:38;10.40;99.90
8095;DHT22;4090;49.270;8.696;2023-11-19T05:11:21;10.50;99.90
8095;DHT22;4090;49.270;8.696;2023-11-19T05:14:03;10.60;99.90
8095;DHT22;4090;49.270;8.696;2023-11-19T05:16:45;10.60;99.90
8095;DHT22;4090;49.270;8.696;2023-11-19T05:19:27;10.60;99.90
8095;DHT22;4090;49.270;8.696;2023-11-19T05:22:09;10.60;99.90
8095;DHT22;4090;49.270;8.696;2023-11-19T05:24:51;10.60;99.90
8095;DHT22;4090;49.270;8.696;2023-11-19T05:27:34;10.50;99.90
8095;DHT22;4090;49.270;8.696;2023-11-19T05:30:16;10.60;99.90
8095;DHT22;4090;49.270;8.696;2023-11-19T05:32:58;10.70;99.90
8095;DHT22;4090;49.270;8.696;2023-11-19T05:35:41;10.70;99.90
8095;DHT22;4090;49.270;8.696;2023-11-19T05:38:23;10.70;99.90
8095;DHT22;4090;49.270;8.696;2023-11-19T05:41:05;10.70;99.90
8095;DHT22;4090;49.270;8.696;2023-11-19T05:43:48;10.60;99.90
8095;DHT22;4090;49.270;8.696;2023-11-19T05:46:30;10.60;99.90
8095;DHT22;4090;49.270;8.696;2023-11-19T05:49:12;10.70;99.90
8095;DHT22;4090;49.270;8.696;2023-11-19T05:51:54;10.60;99.90
8095;DHT22;4090;49.270;8.696;2023-11-19T05:54:36;10.60;99.90
8095;DHT22;4090;49.270;8.696;2023-11-19T05:57:19;10.70;99.90
8095;DHT22;4090;49.270;8.696;2023-11-19T06:00:07;10.70;99.90
8095;DHT22;4090;49.270;8.696;2023-11-19T06:02:54;10.70;99.90
8095;DHT22;4090;49.270;8.696;2023-11-19T06:05:35;10.70;99.90
8095;DHT22;4090;49.270;8.696;2023-11-19T06:08:17;10.80;99.90
8095;DHT22;4090;49.270;8.696;2023-11-19T06:11:01;10.80;99.90
8095;DHT22;4090;49.270;8.696;2023-11-19T06:13:43;10.80;99.90
8095;DHT22;4090;49.270;8.696;2023-11-19T06:16:27;10.80;99.90
8095;DHT22;4090;49.270;8.696;2023-11-19T06:19:08;10.90;99.90
8095;DHT22;4090;49.270;8.696;2023-11-19T06:21:50;10.90;99.90
8095;DHT22;4090;49.270;8.696;2023-11-19T06:24:32;10.90;99.90
8095;DHT22;4090;49.270;8.696;2023-11-19T06:27:14;10.90;99.90
8095;DHT22;4090;49.270;8.696;2023-11-19T06:29:56;10.90;99.90
8095;DHT22;4090;49.270;8.696;2023-11-19T06:32:39;10.90;99.90
8095;DHT22;4090;49.270;8.696;2023-11-19T06:35:21;10.90;99.90
8095;DHT22;4090;49.270;8.696;2023-11-19T06:38:03;10.90;99.90
8095;DHT22;4090;49.270;8.696;2023-11-19T06:40:45;11.00;99.90
8095;DHT22;4090;49.270;8.696;2023-11-19T06:43:27;11.00;99.90
8095;DHT22;4090;49.270;8.696;2023-11-19T06:46:15;10.90;99.90
8095;DHT22;4090;49.270;8.696;2023-11-19T06:48:58;10.90;99.90
8095;DHT22;4090;49.270;8.696;2023-11-19T06:51:41;10.90;99.90
8095;DHT22;4090;49.270;8.696;2023-11-19T06:54:24;10.90;99.90
8095;DHT22;4090;49.270;8.696;2023-11-19T06:57:06;11.00;99.90
8095;DHT22;4090;49.270;8.696;2023-11-19T06:59:50;11.00;99.90
8095;DHT22;4090;49.270;8.696;2023-11-19T07:02:31;11.10;99.90
8095;DHT22;4090;49.270;8.696;2023-11-19T07:05:15;11.20;99.90
8095;DHT22;4090;49.270;8.696;2023-11-19T07:07:56;11.10;99.90
8095;DHT22;4090;49.270;8.696;2023-11-19T07:10:38;11.10;99.90
8095;DHT22;4090;49.270;8.696;2023-11-19T07:13:20;11.20;99.90
8095;DHT22;4090;49.270;8.696;2023-11-19T07:16:02;11.20;99.90
8095;DHT22;4090;49.270;8.696;2023-11-19T07:18:44;11.20;99.90
8095;DHT22;4090;49.270;8.696;2023-11-19T07:21:27;11.20;99.90
8095;DHT22;4090;49.270;8.696;2023-11-19T07:24:10;11.10;99.90
8095;DHT22;4090;49.270;8.696;2023-11-19T07:26:53;11.10;99.90
8095;DHT22;4090;49.270;8.696;2023-11-19T07:29:35;11.30;99.90
8095;DHT22;4090;49.270;8.696;2023-11-19T07:32:17;11.20;99.90
8095;DHT22;4090;49.270;8.696;2023-11-19T07:34:59;11.20;99.90
8095;DHT22;4090;49.270;8.696;2023-11-19T07:37:43;11.30;99.90
8095;DHT22;4090;49.270;8.696;2023-11-19T07:40:26;11.20;99.90
8095;DHT22;4090;49.270;8.696;2023-11-19T07:43:08;11.10;99.90
8095;DHT22;4090;49.270;8.696;2023-11-19T07:45:50;11.20;99.90
8095;DHT22;4090;49.270;8.696;2023-11-19T07:48:32;11.20;99.90
8095;DHT22;4090;49.270;8.696;2023-11-19T07:51:15;11.20;99.90
8095;DHT22;4090;49.270;8.696;2023-11-19T07:53:58;11.30;99.90
8095;DHT22;4090;49.270;8.696;2023-11-19T07:56:40;11.30;99.90
8095;DHT22;4090;49.270;8.696;2023-11-19T07:59:22;11.20;99.90
8095;DHT22;4090;49.270;8.696;2023-11-19T08:02:04;11.30;99.90
8095;DHT22;4090;49.270;8.696;2023-11-19T08:04:46;11.30;99.90
8095;DHT22;4090;49.270;8.696;2023-11-19T08:07:30;11.30;99.90
8095;DHT22;4090;49.270;8.696;2023-11-19T08:10:13;11.30;99.90
8095;DHT22;4090;49.270;8.696;2023-11-19T08:12:55;11.50;99.90
8095;DHT22;4090;49.270;8.696;2023-11-19T08:15:37;11.40;99.90
8095;DHT22;4090;49.270;8.696;2023-11-19T08:18:19;11.30;99.90
8095;DHT22;4090;49.270;8.696;2023-11-19T08:21:01;11.40;99.90
8095;DHT22;4090;49.270;8.696;2023-11-19T08:23:45;11.50;99.90
8095;DHT22;4090;49.270;8.696;2023-11-19T08:26:28;11.50;99.90
8095;DHT22;4090;49.270;8.696;2023-11-19T08:29:10;11.40;99.90
8095;DHT22;4090;49.270;8.696;2023-11-19T08:31:52;11.50;99.90
8095;DHT22;4090;49.270;8.696;2023-11-19T08:34:34;11.60;99.90
8095;DHT22;4090;49.270;8.696;2023-11-19T08:37:16;11.80;99.90
8095;DHT22;4090;49.270;8.696;2023-11-19T08:39:58;11.60;99.90
8095;DHT22;4090;49.270;8.696;2023-11-19T08:42:43;11.60;99.90
8095;DHT22;4090;49.270;8.696;2023-11-19T08:45:25;11.90;99.90
8095;DHT22;4090;49.270;8.696;2023-11-19T08:48:07;11.60;99.90
8095;DHT22;4090;49.270;8.696;2023-11-19T08:50:49;11.70;99.90
8095;DHT22;4090;49.270;8.696;2023-11-19T08:53:30;11.60;99.90
8095;DHT22;4090;49.270;8.696;2023-11-19T08:56:12;11.80;99.90
8095;DHT22;4090;49.270;8.696;2023-11-19T08:58:56;11.70;99.90
8095;DHT22;4090;49.270;8.696;2023-11-19T09:01:38;11.80;99.90
8095;DHT22;4090;49.270;8.696;2023-11-19T09:04:20;11.70;99.90
8095;DHT22;4090;49.270;8.696;2023-11-19T09:07:03;11.80;99.90
8095;DHT22;4090;49.270;8.696;2023-11-19T09:09:45;11.80;99.90
8095;DHT22;4090;49.270;8.696;2023-11-19T09:12:27;11.80;99.90
8095;DHT22;4090;49.270;8.696;2023-11-19T09:15:10;11.80;99.90
8095;DHT22;4090;49.270;8.696;2023-11-19T09:17:52;11.80;99.90
8095;DHT22;4090;49.270;8.696;2023-11-19T09:20:34;12.00;99.90
8095;DHT22;4090;49.270;8.696;2023-11-19T09:23:19;11.90;99.90
8095;DHT22;4090;49.270;8.696;2023-11-19T09:26:00;12.00;99.90
8095;DHT22;4090;49.270;8.696;2023-11-19T09:28:42;12.00;99.90
8095;DHT22;4090;49.270;8.696;2023-11-19T09:31:26;12.00;99.90
8095;DHT22;4090;49.270;8.696;2023-11-19T09:34:07;12.00;99.90
8095;DHT22;4090;49.270;8.696;2023-11-19T09:36:49;12.10;99.90
8095;DHT22;4090;49.270;8.696;2023-11-19T09:39:31;12.00;99.90
8095;DHT22;4090;49.270;8.696;2023-11-19T09:42:13;12.10;99.90
8095;DHT22;4090;49.270;8.696;2023-11-19T09:44:56;12.10;99.90
8095;DHT22;4090;49.270;8.696;2023-11-19T09:47:42;12.20;99.90
8095;DHT22;4090;49.270;8.696;2023-11-19T09:50:24;12.20;99.90
8095;DHT22;4090;49.270;8.696;2023-11-19T09:53:06;12.10;99.90
8095;DHT22;4090;49.270;8.696;2023-11-19T09:55:48;12.20;99.90
8095;DHT22;4090;49.270;8.696;2023-11-19T09:58:31;12.30;99.90
8095;DHT22;4090;49.270;8.696;2023-11-19T10:01:14;12.30;99.90
8095;DHT22;4090;49.270;8.696;2023-11-19T10:03:57;12.50;99.90
8095;DHT22;4090;49.270;8.696;2023-11-19T10:06:40;12.40;99.90
8095;DHT22;4090;49.270;8.696;2023-11-19T10:09:22;12.50;99.90
8095;DHT22;4090;49.270;8.696;2023-11-19T10:12:04;12.50;99.90
8095;DHT22;4090;49.270;8.696;2023-11-19T10:14:47;12.40;99.90
8095;DHT22;4090;49.270;8.696;2023-11-19T10:17:33;12.50;99.90
8095;DHT22;4090;49.270;8.696;2023-11-19T10:20:16;12.70;99.90
8095;DHT22;4090;49.270;8.696;2023-11-19T10:22:58;12.60;99.90
8095;DHT22;4090;49.270;8.696;2023-11-19T10:25:40;12.70;99.90
8095;DHT22;4090;49.270;8.696;2023-11-19T10:28:22;12.60;99.90
8095;DHT22;4090;49.270;8.696;2023-11-19T10:31:05;12.90;99.90
8095;DHT22;4090;49.270;8.696;2023-11-19T10:33:47;12.70;99.90
8095;DHT22;4090;49.270;8.696;2023-11-19T10:36:40;12.80;99.90
8095;DHT22;4090;49.270;8.696;2023-11-19T10:39:22;12.70;99.90
8095;DHT22;4090;49.270;8.696;2023-11-19T10:42:15;12.80;99.90
8095;DHT22;4090;49.270;8.696;2023-11-19T10:44:57;12.80;99.90
8095;DHT22;4090;49.270;8.696;2023-11-19T10:47:39;13.00;99.90
8095;DHT22;4090;49.270;8.696;2023-11-19T10:50:21;13.20;99.90
8095;DHT22;4090;49.270;8.696;2023-11-19T10:53:10;13.40;99.90
8095;DHT22;4090;49.270;8.696;2023-11-19T10:55:56;13.30;99.90
8095;DHT22;4090;49.270;8.696;2023-11-19T10:58:44;13.20;99.90
8095;DHT22;4090;49.270;8.696;2023-11-19T11:01:29;13.20;99.90
8095;DHT22;4090;49.270;8.696;2023-11-19T11:04:14;13.10;99.90
8095;DHT22;4090;49.270;8.696;2023-11-19T11:07:01;13.20;99.90
8095;DHT22;4090;49.270;8.696;2023-11-19T11:09:47;13.10;99.90
8095;DHT22;4090;49.270;8.696;2023-11-19T11:12:32;13.30;99.90
8095;DHT22;4090;49.270;8.696;2023-11-19T11:15:18;13.50;99.90
8095;DHT22;4090;49.270;8.696;2023-11-19T11:18:02;13.30;99.90
8095;DHT22;4090;49.270;8.696;2023-11-19T11:20:44;13.10;99.90
8095;DHT22;4090;49.270;8.696;2023-11-19T11:23:37;13.30;99.90
8095;DHT22;4090;49.270;8.696;2023-11-19T11:26:58;13.60;99.90
8095;DHT22;4090;49.270;8.696;2023-11-19T11:29:51;13.50;99.90
8095;DHT22;4090;49.270;8.696;2023-11-19T11:32:44;13.50;99.90
8095;DHT22;4090;49.270;8.696;2023-11-19T11:35:36;13.60;99.90
8095;DHT22;4090;49.270;8.696;2023-11-19T11:38:23;13.90;99.90
8095;DHT22;4090;49.270;8.696;2023-11-19T11:41:15;13.60;99.90
8095;DHT22;4090;49.270;8.696;2023-11-19T11:44:01;13.70;99.90
8095;DHT22;4090;49.270;8.696;2023-11-19T11:46:55;13.70;99.90
8095;DHT22;4090;49.270;8.696;2023-11-19T11:49:38;13.70;99.90
8095;DHT22;4090;49.270;8.696;2023-11-19T11:52:20;13.60;99.90
8095;DHT22;4090;49.270;8.696;2023-11-19T11:55:04;13.70;99.90
8095;DHT22;4090;49.270;8.696;2023-11-19T11:57:48;13.70;99.90
8095;DHT22;4090;49.270;8.696;2023-11-19T12:00:33;13.90;99.90
8095;DHT22;4090;49.270;8.696;2023-11-19T12:03:20;14.00;99.90
8095;DHT22;4090;49.270;8.696;2023-11-19T12:06:03;13.80;99.90
8095;DHT22;4090;49.270;8.696;2023-11-19T12:08:45;14.00;99.90
8095;DHT22;4090;49.270;8.696;2023-11-19T12:11:28;13.70;99.90
8095;DHT22;4090;49.270;8.696;2023-11-19T12:14:13;13.90;99.90
8095;DHT22;4090;49.270;8.696;2023-11-19T12:17:03;14.00;99.90
8095;DHT22;4090;49.270;8.696;2023-11-19T12:19:45;13.80;99.90
8095;DHT22;4090;49.270;8.696;2023-11-19T12:22:27;13.70;99.90
8095;DHT22;4090;49.270;8.696;2023-11-19T12:25:10;13.70;99.90
8095;DHT22;4090;49.270;8.696;2023-11-19T12:27:53;13.40;99.90
8095;DHT22;4090;49.270;8.696;2023-11-19T12:30:35;13.70;99.90
8095;DHT22;4090;49.270;8.696;2023-11-19T12:33:19;13.80;99.90
8095;DHT22;4090;49.270;8.696;2023-11-19T12:36:01;13.70;99.90
8095;DHT22;4090;49.270;8.696;2023-11-19T12:38:46;13.70;99.90
8095;DHT22;4090;49.270;8.696;2023-11-19T12:41:28;13.60;99.90
8095;DHT22;4090;49.270;8.696;2023-11-19T12:44:11;13.60;99.90
8095;DHT22;4090;49.270;8.696;2023-11-19T12:47:01;13.70;99.90
8095;DHT22;4090;49.270;8.696;2023-11-19T12:49:55;13.80;99.90
8095;DHT22;4090;49.270;8.696;2023-11-19T12:52:37;13.60;99.90
8095;DHT22;4090;49.270;8.696;2023-11-19T12:55:27;13.70;99.90
8095;DHT22;4090;49.270;8.696;2023-11-19T12:58:09;13.60;99.90
8095;DHT22;4090;49.270;8.696;2023-11-19T13:00:59;13.80;99.90
8095;DHT22;4090;49.270;8.696;2023-11-19T13:03:41;13.70;99.90
8095;DHT22;4090;49.270;8.696;2023-11-19T13:06:24;13.80;99.90
8095;DHT22;4090;49.270;8.696;2023-11-19T13:09:06;13.80;99.90
8095;DHT22;4090;49.270;8.696;2023-11-19T13:11:54;13.70;99.90
8095;DHT22;4090;49.270;8.696;2023-11-19T13:14:37;13.90;99.90
8095;DHT22;4090;49.270;8.696;2023-11-19T13:17:19;14.00;99.90
8095;DHT22;4090;49.270;8.696;2023-11-19T13:20:01;14.10;99.90
8095;DHT22;4090;49.270;8.696;2023-11-19T13:22:55;14.10;99.90
8095;DHT22;4090;49.270;8.696;2023-11-19T13:25:37;14.20;99.90
8095;DHT22;4090;49.270;8.696;2023-11-19T13:28:19;14.20;99.90
8095;DHT22;4090;49.270;8.696;2023-11-19T13:31:01;14.30;99.90
8095;DHT22;4090;49.270;8.696;2023-11-19T13:33:43;14.20;99.90
8095;DHT22;4090;49.270;8.696;2023-11-19T13:36:25;14.10;99.90
8095;DHT22;4090;49.270;8.696;2023-11-19T13:39:08;14.10;99.90
8095;DHT22;4090;49.270;8.696;2023-11-19T13:41:52;14.10;99.90
8095;DHT22;4090;49.270;8.696;2023-11-19T13:44:34;14.50;99.90
8095;DHT22;4090;49.270;8.696;2023-11-19T13:47:16;14.20;99.90
8095;DHT22;4090;49.270;8.696;2023-11-19T13:49:58;14.30;99.90
8095;DHT22;4090;49.270;8.696;2023-11-19T13:52:41;14.20;99.90
8095;DHT22;4090;49.270;8.696;2023-11-19T13:55:25;14.40;99.90
8095;DHT22;4090;49.270;8.696;2023-11-19T13:58:06;14.30;99.90
8095;DHT22;4090;49.270;8.696;2023-11-19T14:00:48;14.30;99.90
8095;DHT22;4090;49.270;8.696;2023-11-19T14:03:31;14.30;99.90
8095;DHT22;4090;49.270;8.696;2023-11-19T14:06:14;14.30;99.90
8095;DHT22;4090;49.270;8.696;2023-11-19T14:08:56;14.20;99.90
8095;DHT22;4090;49.270;8.696;2023-11-19T14:11:39;14.20;99.90
8095;DHT22;4090;49.270;8.696;2023-11-19T14:14:22;14.30;99.90
8095;DHT22;4090;49.270;8.696;2023-11-19T14:17:04;14.20;99.90
8095;DHT22;4090;49.270;8.696;2023-11-19T14:19:47;14.30;99.90
8095;DHT22;4090;49.270;8.696;2023-11-19T14:22:28;14.20;99.90
8095;DHT22;4090;49.270;8.696;2023-11-19T14:25:11;14.10;99.90
8095;DHT22;4090;49.270;8.696;2023-11-19T14:27:54;14.10;99.90
8095;DHT22;4090;49.270;8.696;2023-11-19T14:30:36;14.10;99.90
8095;DHT22;4090;49.270;8.696;2023-11-19T14:33:19;14.20;99.90
8095;DHT22;4090;49.270;8.696;2023-11-19T14:36:00;14.10;99.90
8095;DHT22;4090;49.270;8.696;2023-11-19T14:38:42;14.10;99.90
8095;DHT22;4090;49.270;8.696;2023-11-19T14:41:24;14.00;99.90
8095;DHT22;4090;49.270;8.696;2023-11-19T14:44:08;14.00;99.90
8095;DHT22;4090;49.270;8.696;2023-11-19T14:46:50;14.00;99.90
8095;DHT22;4090;49.270;8.696;2023-11-19T14:49:32;13.90;99.90
8095;DHT22;4090;49.270;8.696;2023-11-19T14:52:16;13.90;99.90
8095;DHT22;4090;49.270;8.696;2023-11-19T14:54:57;13.90;99.90
8095;DHT22;4090;49.270;8.696;2023-11-19T14:57:39;13.90;99.90
8095;DHT22;4090;49.270;8.696;2023-11-19T15:00:23;13.80;99.90
8095;DHT22;4090;49.270;8.696;2023-11-19T15:03:06;13.80;99.90
8095;DHT22;4090;49.270;8.696;2023-11-19T15:05:49;13.70;99.90
8095;DHT22;4090;49.270;8.696;2023-11-19T15:08:31;13.70;99.90
8095;DHT22;4090;49.270;8.696;2023-11-19T15:11:13;13.60;99.90
8095;DHT22;4090;49.270;8.696;2023-11-19T15:13:55;13.70;99.90
8095;DHT22;4090;49.270;8.696;2023-11-19T15:16:38;13.60;99.90
8095;DHT22;4090;49.270;8.696;2023-11-19T15:19:20;13.60;99.90
8095;DHT22;4090;49.270;8.696;2023-11-19T15:22:02;13.60;99.90
8095;DHT22;4090;49.270;8.696;2023-11-19T15:24:46;13.60;99.90
8095;DHT22;4090;49.270;8.696;2023-11-19T15:27:28;13.50;99.90
8095;DHT22;4090;49.270;8.696;2023-11-19T15:30:11;13.50;99.90
8095;DHT22;4090;49.270;8.696;2023-11-19T15:32:54;13.60;99.90
8095;DHT22;4090;49.270;8.696;2023-11-19T15:35:36;13.50;99.90
8095;DHT22;4090;49.270;8.696;2023-11-19T15:38:20;13.40;99.90
8095;DHT22;4090;49.270;8.696;2023-11-19T15:41:02;13.40;99.90
8095;DHT22;4090;49.270;8.696;2023-11-19T15:43:45;13.40;99.90
8095;DHT22;4090;49.270;8.696;2023-11-19T15:46:27;13.40;99.90
8095;DHT22;4090;49.270;8.696;2023-11-19T15:49:10;13.40;99.90
8095;DHT22;4090;49.270;8.696;2023-11-19T15:51:52;13.50;99.90
8095;DHT22;4090;49.270;8.696;2023-11-19T15:54:34;13.40;99.90
8095;DHT22;4090;49.270;8.696;2023-11-19T15:57:17;13.40;99.90
8095;DHT22;4090;49.270;8.696;2023-11-19T15:59:59;13.30;99.90
8095;DHT22;4090;49.270;8.696;2023-11-19T16:02:41;13.30;99.90
8095;DHT22;4090;49.270;8.696;2023-11-19T16:05:24;13.30;99.90
8095;DHT22;4090;49.270;8.696;2023-11-19T16:08:06;13.30;99.90
8095;DHT22;4090;49.270;8.696;2023-11-19T16:10:51;13.30;99.90
8095;DHT22;4090;49.270;8.696;2023-11-19T16:13:33;13.30;99.90
8095;DHT22;4090;49.270;8.696;2023-11-19T16:16:15;13.30;99.90
8095;DHT22;4090;49.270;8.696;2023-11-19T16:18:57;13.40;99.90
8095;DHT22;4090;49.270;8.696;2023-11-19T16:21:41;13.30;99.90
8095;DHT22;4090;49.270;8.696;2023-11-19T16:24:23;13.20;99.90
8095;DHT22;4090;49.270;8.696;2023-11-19T16:27:06;13.20;99.90
8095;DHT22;4090;49.270;8.696;2023-11-19T16:29:48;13.10;99.90
8095;DHT22;4090;49.270;8.696;2023-11-19T16:32:29;13.10;99.90
8095;DHT22;4090;49.270;8.696;2023-11-19T16:35:11;13.00;99.90
8095;DHT22;4090;49.270;8.696;2023-11-19T16:37:55;13.20;99.90
8095;DHT22;4090;49.270;8.696;2023-11-19T16:40:37;13.20;99.90
8095;DHT22;4090;49.270;8.696;2023-11-19T16:43:19;13.00;99.90
8095;DHT22;4090;49.270;8.696;2023-11-19T16:46:01;12.90;99.90
8095;DHT22;4090;49.270;8.696;2023-11-19T16:48:45;13.00;99.90
8095;DHT22;4090;49.270;8.696;2023-11-19T16:51:27;13.10;99.90
8095;DHT22;4090;49.270;8.696;2023-11-19T16:54:10;12.90;99.90
8095;DHT22;4090;49.270;8.696;2023-11-19T16:56:53;13.10;99.90
8095;DHT22;4090;49.270;8.696;2023-11-19T16:59:34;12.90;99.90
8095;DHT22;4090;49.270;8.696;2023-11-19T17:02:16;12.90;99.90
8095;DHT22;4090;49.270;8.696;2023-11-19T17:04:58;13.00;99.90
8095;DHT22;4090;49.270;8.696;2023-11-19T17:07:40;13.10;99.90
8095;DHT22;4090;49.270;8.696;2023-11-19T17:10:23;13.00;99.90
8095;DHT22;4090;49.270;8.696;2023-11-19T17:13:05;12.90;99.90
8095;DHT22;4090;49.270;8.696;2023-11-19T17:15:47;12.90;99.90
8095;DHT22;4090;49.270;8.696;2023-11-19T17:18:29;13.10;99.90
8095;DHT22;4090;49.270;8.696;2023-11-19T17:21:11;12.70;99.90
8095;DHT22;4090;49.270;8.696;2023-11-19T17:23:54;13.00;99.90
8095;DHT22;4090;49.270;8.696;2023-11-19T17:26:37;13.10;99.90
8095;DHT22;4090;49.270;8.696;2023-11-19T17:29:19;12.70;99.90
8095;DHT22;4090;49.270;8.696;2023-11-19T17:32:02;13.00;99.90
8095;DHT22;4090;49.270;8.696;2023-11-19T17:34:44;12.90;99.90
8095;DHT22;4090;49.270;8.696;2023-11-19T17:37:26;13.00;99.90
8095;DHT22;4090;49.270;8.696;2023-11-19T17:40:08;12.80;99.90
8095;DHT22;4090;49.270;8.696;2023-11-19T17:42:55;12.80;99.90
8095;DHT22;4090;49.270;8.696;2023-11-19T17:45:38;12.80;99.90
8095;DHT22;4090;49.270;8.696;2023-11-19T17:48:20;12.90;99.90
8095;DHT22;4090;49.270;8.696;2023-11-19T17:51:02;12.90;99.90
8095;DHT22;4090;49.270;8.696;2023-11-19T17:53:47;13.00;99.90